Beatty, Oregon
Current Conditions -  °F | °C
As of 2:53 PM on Thursday 20 Nov 2014 (Local Time) from KLMT Reporting Station
Overcast Overcast  
Wind Chill: 41°   Ceiling: 2900
Heat Index: 45°   Visibility: 10mi
Dew Point: 38°   Wind: 8mph
Humidity: 76%   Direction: 150°SSE
Pressure: 29.95"   Gusts: NA
Location:  42.44°N, 121.27°W
Report Text: KLMT 202253Z 15007KT 10SM BKN029 OVC035 07/03 A2995 RMK AO2 SLP143 T00720033
Loading
Personal Weather Stations






























Interactive Weather Map New forecast layout! Learn more

10-Day Weather Forecast

Advertisements
Track Severe Weather on mobile